createdAt,value
2019-02-10T00:00:13.055Z,971.1
2019-02-10T00:01:14.347Z,971.1
2019-02-10T00:02:15.633Z,971.1
2019-02-10T00:03:17.206Z,971.1
2019-02-10T00:04:18.503Z,971.1
2019-02-10T00:05:19.803Z,971
2019-02-10T00:06:25.719Z,971
2019-02-10T00:07:27.001Z,971
2019-02-10T00:08:28.299Z,971
2019-02-10T00:09:29.569Z,971
2019-02-10T00:10:30.863Z,971
2019-02-10T00:11:32.273Z,971
2019-02-10T00:12:33.927Z,971
2019-02-10T00:13:35.213Z,971
2019-02-10T00:14:36.502Z,971
2019-02-10T00:15:40.379Z,971
2019-02-10T00:16:44.159Z,971
2019-02-10T00:17:45.587Z,970.9
2019-02-10T00:18:48.057Z,971
2019-02-10T00:19:50.616Z,971
2019-02-10T00:20:53.459Z,970.9
2019-02-10T00:22:00.643Z,971
2019-02-10T00:23:08.453Z,971
2019-02-10T00:24:10.025Z,970.9
2019-02-10T00:25:11.278Z,970.9
2019-02-10T00:26:12.594Z,970.9
2019-02-10T00:27:13.938Z,970.8
2019-02-10T00:28:15.327Z,970.9
2019-02-10T00:29:16.649Z,970.8
2019-02-10T00:30:17.932Z,970.9
2019-02-10T00:31:22.128Z,970.8
2019-02-10T00:32:23.451Z,970.8
2019-02-10T00:33:25.023Z,970.8
2019-02-10T00:34:26.321Z,970.8
2019-02-10T00:35:36.437Z,970.8
2019-02-10T00:36:37.727Z,970.8
2019-02-10T00:37:43.405Z,970.8
2019-02-10T00:38:50.004Z,970.8
2019-02-10T00:39:51.469Z,970.8
2019-02-10T00:40:53.234Z,970.8
2019-02-10T00:41:54.635Z,970.8
2019-02-10T00:42:55.993Z,970.8
2019-02-10T00:43:57.277Z,970.7
2019-02-10T00:45:02.774Z,970.7
2019-02-10T00:46:04.299Z,970.8
2019-02-10T00:47:06.149Z,970.6
2019-02-10T00:48:07.494Z,970.6
2019-02-10T00:49:08.755Z,970.4
2019-02-10T00:50:10.055Z,970.5
2019-02-10T00:51:11.358Z,970.5
2019-02-10T00:52:12.647Z,970.4
2019-02-10T00:53:14.579Z,970.5
2019-02-10T00:54:15.867Z,970.5
2019-02-10T00:55:17.290Z,970.5
2019-02-10T00:56:19.908Z,970.5
2019-02-10T00:57:27.973Z,970.4
2019-02-10T00:58:29.594Z,970.4
2019-02-10T00:59:32.115Z,970.5
2019-02-10T01:00:33.410Z,970.5
2019-02-10T01:01:34.713Z,970.5
2019-02-10T01:02:36.025Z,970.4
2019-02-10T01:03:37.373Z,970.3
2019-02-10T01:04:38.672Z,970.4
2019-02-10T01:05:39.973Z,970.4
2019-02-10T01:06:42.445Z,970.4
2019-02-10T01:07:43.729Z,970.5
2019-02-10T01:08:45.056Z,970.5
2019-02-10T01:09:46.316Z,970.4
2019-02-10T01:10:47.588Z,970.3
2019-02-10T01:11:48.929Z,970.3
2019-02-10T01:12:50.232Z,970.3
2019-02-10T01:13:51.556Z,970.2
2019-02-10T01:14:52.882Z,970.3
2019-02-10T01:15:54.162Z,970.3
2019-02-10T01:16:55.506Z,970.2
2019-02-10T01:17:56.818Z,970.3
2019-02-10T01:19:01.220Z,970.3
2019-02-10T01:20:03.516Z,970.2
2019-02-10T01:21:04.830Z,970.2
2019-02-10T01:22:06.413Z,970.2
2019-02-10T01:23:08.095Z,970
2019-02-10T01:24:09.389Z,970.1
2019-02-10T01:25:10.676Z,970.1
2019-02-10T01:26:12.222Z,970.1
2019-02-10T01:27:13.510Z,970.1
2019-02-10T01:28:14.788Z,970
2019-02-10T01:29:16.366Z,970
2019-02-10T01:30:17.640Z,970
2019-02-10T01:31:19.830Z,970
2019-02-10T01:32:21.120Z,970
2019-02-10T01:33:22.764Z,970
2019-02-10T01:34:24.111Z,970
2019-02-10T01:35:27.404Z,970
2019-02-10T01:36:28.708Z,969.9
2019-02-10T01:37:30.056Z,969.9
2019-02-10T01:38:31.552Z,969.9
2019-02-10T01:39:32.854Z,969.9
2019-02-10T01:40:34.164Z,969.9
2019-02-10T01:41:35.478Z,969.9
2019-02-10T01:42:36.770Z,969.8
2019-02-10T01:43:38.056Z,969.8
2019-02-10T01:44:39.588Z,969.8
2019-02-10T01:45:40.894Z,969.8
2019-02-10T01:46:42.204Z,969.8
2019-02-10T01:47:43.477Z,969.7
2019-02-10T01:48:46.958Z,969.8
2019-02-10T01:49:48.298Z,969.7
2019-02-10T01:50:49.574Z,969.7
2019-02-10T01:51:50.834Z,969.7
2019-02-10T01:52:52.137Z,969.7
2019-02-10T01:53:53.415Z,969.6
2019-02-10T01:54:54.741Z,969.6
2019-02-10T01:55:56.012Z,969.6
2019-02-10T01:56:57.278Z,969.6
2019-02-10T01:57:58.533Z,969.6
2019-02-10T01:58:59.828Z,969.5
2019-02-10T02:00:01.180Z,969.5
2019-02-10T02:01:02.446Z,969.4
2019-02-10T02:02:03.730Z,969.5
2019-02-10T02:03:05.013Z,969.5
2019-02-10T02:04:06.277Z,969.5
2019-02-10T02:05:09.929Z,969.4
2019-02-10T02:06:11.302Z,969.4
2019-02-10T02:07:12.613Z,969.4
2019-02-10T02:08:14.171Z,969.4
2019-02-10T02:09:15.435Z,969.4
2019-02-10T02:10:16.759Z,969.3
2019-02-10T02:11:18.381Z,969.3
2019-02-10T02:12:19.669Z,969.3
2019-02-10T02:13:20.938Z,969.3
2019-02-10T02:14:22.314Z,969.3
2019-02-10T02:15:23.661Z,969.4
2019-02-10T02:16:24.938Z,969.3
2019-02-10T02:17:26.196Z,969.3
2019-02-10T02:18:27.749Z,969.2
2019-02-10T02:19:29.292Z,969.2
2019-02-10T02:20:30.609Z,969.3
2019-02-10T02:21:34.386Z,969.2
2019-02-10T02:22:35.653Z,969.2
2019-02-10T02:23:36.964Z,969.3
2019-02-10T02:24:38.233Z,969.1
2019-02-10T02:25:39.544Z,969.2
2019-02-10T02:26:40.800Z,969.2
2019-02-10T02:27:42.066Z,969.1
2019-02-10T02:28:43.345Z,969.1
2019-02-10T02:29:44.622Z,969
2019-02-10T02:30:46.381Z,968.9
2019-02-10T02:31:47.651Z,968.9
2019-02-10T02:32:48.937Z,968.8
2019-02-10T02:33:50.220Z,968.7
2019-02-10T02:34:51.485Z,968.8
2019-02-10T02:35:53.145Z,968.8
2019-02-10T02:36:54.430Z,968.7
2019-02-10T02:37:55.705Z,968.6
2019-02-10T02:38:56.970Z,968.6
2019-02-10T02:39:58.244Z,968.6
2019-02-10T02:40:59.546Z,968.5
2019-02-10T02:42:00.828Z,968.4
2019-02-10T02:43:02.111Z,968.5
2019-02-10T02:44:03.398Z,968.6
2019-02-10T02:45:04.693Z,968.4
2019-02-10T02:46:06.344Z,968.5
2019-02-10T02:47:07.609Z,968.5
2019-02-10T02:48:08.912Z,968.5
2019-02-10T02:49:10.179Z,968.4
2019-02-10T02:50:11.733Z,968.4
2019-02-10T02:51:13.042Z,968.4
2019-02-10T02:52:14.326Z,968.4
2019-02-10T02:53:15.615Z,968.4
2019-02-10T02:54:16.895Z,968.3
2019-02-10T02:55:18.172Z,968.1
2019-02-10T02:56:19.484Z,968.2
2019-02-10T02:57:20.791Z,968.1
2019-02-10T02:58:22.067Z,968.3
2019-02-10T02:59:23.674Z,968.4
2019-02-10T03:00:24.949Z,968.5
2019-02-10T03:01:26.338Z,968.4
2019-02-10T03:02:27.632Z,968.4
2019-02-10T03:03:28.897Z,968.3
2019-02-10T03:04:30.219Z,968.3
2019-02-10T03:05:31.511Z,968.3
2019-02-10T03:06:35.031Z,968.3
2019-02-10T03:07:36.353Z,968.3
2019-02-10T03:08:40.404Z,968.3
2019-02-10T03:09:41.678Z,968.2
2019-02-10T03:10:43.011Z,968.2
2019-02-10T03:11:44.316Z,968.2
2019-02-10T03:12:45.599Z,968.2
2019-02-10T03:13:48.047Z,968.1
2019-02-10T03:14:49.634Z,968.1
2019-02-10T03:15:50.906Z,967.8
2019-02-10T03:16:52.253Z,967.9
2019-02-10T03:17:53.542Z,967.9
2019-02-10T03:18:54.839Z,967.9
2019-02-10T03:19:56.181Z,967.8
2019-02-10T03:20:57.513Z,967.9
2019-02-10T03:21:58.825Z,967.8
2019-02-10T03:23:00.109Z,967.9
2019-02-10T03:24:01.410Z,967.8
2019-02-10T03:25:02.685Z,967.8
2019-02-10T03:26:03.969Z,967.7
2019-02-10T03:27:05.343Z,967.8
2019-02-10T03:28:06.675Z,967.7
2019-02-10T03:29:07.961Z,967.8
2019-02-10T03:30:09.257Z,967.7
2019-02-10T03:31:10.542Z,967.5
2019-02-10T03:32:11.874Z,967.7
2019-02-10T03:33:13.542Z,967.7
2019-02-10T03:34:14.788Z,967.6
2019-02-10T03:35:16.066Z,967.6
2019-02-10T03:36:17.327Z,967.5
2019-02-10T03:37:27.829Z,967.5
2019-02-10T03:38:29.117Z,967.5
2019-02-10T03:39:30.789Z,967.5
2019-02-10T03:40:32.049Z,967.6
2019-02-10T03:41:33.345Z,967.5
2019-02-10T03:42:34.665Z,967.5
2019-02-10T03:43:35.939Z,967.4
2019-02-10T03:44:37.205Z,967.4
2019-02-10T03:45:38.483Z,967.4
2019-02-10T03:46:39.773Z,967.4
2019-02-10T03:47:41.119Z,967.4
2019-02-10T03:48:42.442Z,967.3
2019-02-10T03:49:43.708Z,967.4
2019-02-10T03:50:44.973Z,967.3
2019-02-10T03:51:46.259Z,967.3
2019-02-10T03:52:47.592Z,967.3
2019-02-10T03:53:49.131Z,967.2
2019-02-10T03:54:50.426Z,967.3
2019-02-10T03:55:51.715Z,967.3
2019-02-10T03:56:55.193Z,967.2
2019-02-10T03:57:56.501Z,967.2
2019-02-10T03:58:57.769Z,967.2
2019-02-10T03:59:59.057Z,967.2
2019-02-10T04:01:00.365Z,967.2
2019-02-10T04:02:01.625Z,967.2
2019-02-10T04:03:02.994Z,967.1
2019-02-10T04:04:04.274Z,967.1
2019-02-10T04:05:05.544Z,967.1
2019-02-10T04:06:06.835Z,967
2019-02-10T04:07:08.139Z,967
2019-02-10T04:08:09.431Z,967
2019-02-10T04:09:10.712Z,967.1
2019-02-10T04:10:11.986Z,967
2019-02-10T04:11:13.263Z,967
2019-02-10T04:12:14.546Z,966.9
2019-02-10T04:13:15.860Z,966.9
2019-02-10T04:14:17.149Z,967
2019-02-10T04:15:18.418Z,966.9
2019-02-10T04:16:19.712Z,966.9
2019-02-10T04:17:21.331Z,966.9
2019-02-10T04:18:22.694Z,967
2019-02-10T04:19:24.246Z,966.9
2019-02-10T04:20:25.518Z,966.9
2019-02-10T04:21:26.794Z,966.9
2019-02-10T04:22:28.056Z,966.8
2019-02-10T04:23:29.352Z,966.7
2019-02-10T04:24:30.648Z,966.7
2019-02-10T04:25:31.922Z,966.6
2019-02-10T04:26:33.200Z,966.6
2019-02-10T04:27:34.460Z,966.6
2019-02-10T04:28:36.157Z,966.5
2019-02-10T04:29:37.427Z,966.5
2019-02-10T04:30:38.714Z,966.4
2019-02-10T04:31:39.994Z,966.5
2019-02-10T04:32:41.244Z,966.4
2019-02-10T04:33:42.833Z,966.3
2019-02-10T04:34:44.295Z,966.3
2019-02-10T04:35:45.558Z,966.3
2019-02-10T04:36:46.828Z,966.3
2019-02-10T04:37:48.112Z,966.2
2019-02-10T04:38:49.464Z,966.2
2019-02-10T04:39:50.749Z,966.1
2019-02-10T04:40:52.018Z,966.1
2019-02-10T04:41:53.298Z,966
2019-02-10T04:42:54.637Z,966.1
2019-02-10T04:43:56.007Z,966
2019-02-10T04:44:57.341Z,965.8
2019-02-10T04:45:58.628Z,966
2019-02-10T04:46:59.957Z,965.9
2019-02-10T04:48:01.246Z,966
2019-02-10T04:49:02.618Z,966
2019-02-10T04:50:03.918Z,965.9
2019-02-10T04:51:05.257Z,965.9
2019-02-10T04:52:06.550Z,966
2019-02-10T04:53:07.866Z,965.8
2019-02-10T04:54:09.156Z,965.8
2019-02-10T04:55:10.444Z,965.8
2019-02-10T04:56:11.748Z,965.7
2019-02-10T04:57:13.024Z,965.8
2019-02-10T04:58:14.286Z,965.9
2019-02-10T04:59:15.602Z,965.8
2019-02-10T05:00:16.874Z,965.8
2019-02-10T05:01:20.520Z,965.8
2019-02-10T05:02:21.792Z,965.7
2019-02-10T05:03:23.076Z,965.6
2019-02-10T05:04:24.396Z,965.6
2019-02-10T05:05:25.682Z,965.6
2019-02-10T05:06:28.948Z,965.7
2019-02-10T05:07:30.223Z,965.6
2019-02-10T05:08:31.569Z,965.5
2019-02-10T05:09:32.890Z,965.4
2019-02-10T05:10:34.171Z,965.4
2019-02-10T05:11:35.443Z,965.4
2019-02-10T05:12:36.746Z,965.4
2019-02-10T05:13:38.062Z,965.3
2019-02-10T05:14:39.392Z,965.3
2019-02-10T05:15:40.698Z,965.3
2019-02-10T05:16:42.000Z,965.3
2019-02-10T05:17:43.260Z,965.2
2019-02-10T05:18:44.536Z,965.2
2019-02-10T05:19:46.261Z,965.2
2019-02-10T05:20:47.554Z,965.2
2019-02-10T05:21:48.852Z,965.2
2019-02-10T05:22:50.136Z,965.1
2019-02-10T05:23:51.451Z,965.1
2019-02-10T05:24:52.758Z,965.1
2019-02-10T05:25:54.034Z,965
2019-02-10T05:26:55.328Z,965.2
2019-02-10T05:27:56.610Z,965.1
2019-02-10T05:28:57.898Z,965
2019-02-10T05:29:59.218Z,965
2019-02-10T05:31:00.565Z,964.9
2019-02-10T05:32:01.854Z,965
2019-02-10T05:33:03.862Z,964.8
2019-02-10T05:34:05.396Z,964.8
2019-02-10T05:35:06.762Z,964.8
2019-02-10T05:36:08.038Z,964.9
2019-02-10T05:37:09.303Z,964.9
2019-02-10T05:38:10.611Z,964.8
2019-02-10T05:39:11.880Z,964.6
2019-02-10T05:40:13.184Z,964.7
2019-02-10T05:41:14.471Z,964.6
2019-02-10T05:42:15.797Z,964.6
2019-02-10T05:43:17.103Z,964.5
2019-02-10T05:44:18.374Z,964.4
2019-02-10T05:45:19.724Z,964.3
2019-02-10T05:46:21.006Z,964.3
2019-02-10T05:47:22.273Z,964.3
2019-02-10T05:48:23.930Z,964.2
2019-02-10T05:49:25.206Z,964.2
2019-02-10T05:50:26.555Z,964.2
2019-02-10T05:51:27.875Z,964.2
2019-02-10T05:52:29.252Z,964.2
2019-02-10T05:53:30.549Z,964.1
2019-02-10T05:54:31.860Z,964.2
2019-02-10T05:55:33.187Z,964.1
2019-02-10T05:56:34.503Z,964.1
2019-02-10T05:57:35.776Z,964
2019-02-10T05:58:37.066Z,964
2019-02-10T05:59:38.351Z,964
2019-02-10T06:00:39.683Z,963.9
2019-02-10T06:01:40.970Z,963.9
2019-02-10T06:02:42.269Z,963.9
2019-02-10T06:03:43.822Z,963.8
2019-02-10T06:04:45.414Z,963.8
2019-02-10T06:05:46.757Z,963.8
2019-02-10T06:06:48.036Z,963.8
2019-02-10T06:07:49.317Z,963.7
2019-02-10T06:08:50.598Z,963.8
2019-02-10T06:09:51.973Z,963.7
2019-02-10T06:10:53.301Z,963.7
2019-02-10T06:11:54.609Z,963.8
2019-02-10T06:12:55.902Z,963.7
2019-02-10T06:13:57.198Z,963.6
2019-02-10T06:14:58.469Z,963.7
2019-02-10T06:16:00.316Z,963.7
2019-02-10T06:17:01.638Z,963.5
2019-02-10T06:18:02.967Z,963.6
2019-02-10T06:19:04.242Z,963.4
2019-02-10T06:20:05.523Z,963.5
2019-02-10T06:21:06.862Z,963.5
2019-02-10T06:22:08.136Z,963.3
2019-02-10T06:23:09.472Z,963.4
2019-02-10T06:24:10.768Z,963.4
2019-02-10T06:25:12.052Z,963.3
2019-02-10T06:26:13.385Z,963.4
2019-02-10T06:27:14.641Z,963.4
2019-02-10T06:28:15.939Z,963.2
2019-02-10T06:29:20.369Z,963.3
2019-02-10T06:30:21.996Z,963.2
2019-02-10T06:31:23.312Z,963.2
2019-02-10T06:32:24.601Z,963.2
2019-02-10T06:33:25.884Z,963
2019-02-10T06:34:27.174Z,963.2
2019-02-10T06:35:28.485Z,963.1
2019-02-10T06:36:29.970Z,963
2019-02-10T06:37:31.262Z,963
2019-02-10T06:38:32.559Z,963
2019-02-10T06:39:33.858Z,962.9
2019-02-10T06:40:35.201Z,962.8
2019-02-10T06:41:36.532Z,962.9
2019-02-10T06:42:37.849Z,963
2019-02-10T06:43:39.127Z,962.7
2019-02-10T06:44:40.605Z,962.9
2019-02-10T06:45:41.879Z,962.8
2019-02-10T06:46:43.345Z,962.9
2019-02-10T06:47:44.600Z,962.7
2019-02-10T06:48:47.058Z,962.8
2019-02-10T06:49:48.387Z,962.6
2019-02-10T06:50:49.678Z,962.7
2019-02-10T06:51:51.014Z,962.7
2019-02-10T06:52:52.302Z,962.5
2019-02-10T06:53:53.635Z,962.6
2019-02-10T06:54:54.934Z,962.5
2019-02-10T06:55:56.238Z,962.5
2019-02-10T06:56:57.566Z,962.4
2019-02-10T06:57:58.839Z,962.5
2019-02-10T06:59:00.115Z,962.5
2019-02-10T07:00:01.413Z,962.3
2019-02-10T07:01:02.696Z,962.4
2019-02-10T07:02:04.059Z,962.3
2019-02-10T07:03:05.330Z,962.3
2019-02-10T07:04:06.619Z,962.2
2019-02-10T07:05:07.888Z,962.2
2019-02-10T07:06:09.285Z,962.3
2019-02-10T07:07:10.621Z,962.3
2019-02-10T07:08:11.910Z,962.3
2019-02-10T07:09:13.185Z,962.2
2019-02-10T07:10:15.347Z,962.3
2019-02-10T07:11:16.636Z,962.2
2019-02-10T07:12:17.947Z,962.2
2019-02-10T07:13:19.234Z,962.1
2019-02-10T07:14:20.495Z,961.9
2019-02-10T07:15:24.317Z,962.1
2019-02-10T07:16:25.609Z,962
2019-02-10T07:17:26.951Z,961.9
2019-02-10T07:18:28.231Z,962
2019-02-10T07:19:29.487Z,961.9
2019-02-10T07:20:30.764Z,961.9
2019-02-10T07:21:32.055Z,961.9
2019-02-10T07:22:33.391Z,961.9
2019-02-10T07:23:37.354Z,961.9
2019-02-10T07:24:38.643Z,961.9
2019-02-10T07:25:39.924Z,961.8
2019-02-10T07:26:41.281Z,961.8
2019-02-10T07:27:42.576Z,961.7
2019-02-10T07:28:46.310Z,961.7
2019-02-10T07:29:47.577Z,961.5
2019-02-10T07:30:48.881Z,961.5
2019-02-10T07:31:50.167Z,961.5
2019-02-10T07:32:51.498Z,961.5
2019-02-10T07:33:55.073Z,961.4
2019-02-10T07:34:56.371Z,961.5
2019-02-10T07:35:57.683Z,961.5
2019-02-10T07:37:01.572Z,961.4
2019-02-10T07:38:02.944Z,961.3
2019-02-10T07:39:04.279Z,961.4
2019-02-10T07:40:05.963Z,961.2
2019-02-10T07:41:07.219Z,961.2
2019-02-10T07:42:08.505Z,961.2
2019-02-10T07:43:09.809Z,961.2
2019-02-10T07:44:11.109Z,961.1
2019-02-10T07:45:12.387Z,961.1
2019-02-10T07:46:13.662Z,961.1
2019-02-10T07:47:14.978Z,961.1
2019-02-10T07:48:16.277Z,961
2019-02-10T07:49:17.863Z,960.9
2019-02-10T07:50:19.141Z,961
2019-02-10T07:51:20.464Z,960.8
2019-02-10T07:52:21.849Z,960.9
2019-02-10T07:53:23.189Z,960.8
2019-02-10T07:54:24.497Z,960.7
2019-02-10T07:55:25.881Z,960.7
2019-02-10T07:56:28.788Z,960.6
2019-02-10T07:57:30.396Z,960.6
2019-02-10T07:58:31.727Z,960.6
2019-02-10T07:59:33.242Z,960.6
2019-02-10T08:00:34.526Z,960.5
2019-02-10T08:01:36.323Z,960.4
2019-02-10T08:02:37.604Z,960.4
2019-02-10T08:03:38.933Z,960.3
2019-02-10T08:04:42.565Z,960.2
2019-02-10T08:05:46.944Z,960.3
2019-02-10T08:06:48.232Z,960.2
2019-02-10T08:07:49.503Z,959.9
2019-02-10T08:08:50.856Z,960.1
2019-02-10T08:09:52.196Z,960
2019-02-10T08:10:53.474Z,960.1
2019-02-10T08:11:54.776Z,959.9
2019-02-10T08:12:56.039Z,959.8
2019-02-10T08:13:57.352Z,959.9
2019-02-10T08:14:58.884Z,960
2019-02-10T08:16:00.280Z,959.7
2019-02-10T08:17:01.572Z,959.8
2019-02-10T08:18:02.867Z,959.8
2019-02-10T08:19:04.202Z,959.8
2019-02-10T08:20:05.470Z,959.9
2019-02-10T08:21:06.788Z,959.6
2019-02-10T08:22:08.367Z,959.7
2019-02-10T08:23:09.698Z,959.6
2019-02-10T08:24:15.292Z,959.4
2019-02-10T08:25:20.604Z,959.7
2019-02-10T08:26:21.900Z,959.5
2019-02-10T08:27:23.182Z,959.7
2019-02-10T08:28:24.465Z,959.6
2019-02-10T08:29:28.706Z,959.6
2019-02-10T08:30:29.990Z,959.4
2019-02-10T08:31:31.322Z,959.5
2019-02-10T08:32:32.620Z,959.6
2019-02-10T08:33:33.920Z,959.5
2019-02-10T08:34:35.225Z,959.6
2019-02-10T08:35:36.525Z,959.4
2019-02-10T08:36:37.846Z,959.5
2019-02-10T08:37:39.332Z,959.4
2019-02-10T08:38:40.622Z,959.5
2019-02-10T08:39:42.284Z,959.4
2019-02-10T08:40:44.576Z,959
2019-02-10T08:41:47.968Z,959.3
2019-02-10T08:42:49.241Z,959.1
2019-02-10T08:43:50.879Z,959.2
2019-02-10T08:44:52.318Z,959.1
2019-02-10T08:45:53.657Z,959.1
2019-02-10T08:46:57.290Z,959.2
2019-02-10T08:47:58.788Z,959
2019-02-10T08:49:07.234Z,959
2019-02-10T08:50:09.591Z,959.1
2019-02-10T08:51:10.892Z,959.1
2019-02-10T08:52:12.342Z,959.1
2019-02-10T08:53:13.670Z,959.2
2019-02-10T08:54:15.304Z,959.1
2019-02-10T08:55:16.626Z,958.9
2019-02-10T08:56:18.540Z,959
2019-02-10T08:57:19.857Z,959
2019-02-10T08:58:26.317Z,959.1
2019-02-10T08:59:28.819Z,959
2019-02-10T09:00:30.320Z,959
2019-02-10T09:01:31.962Z,958.9
2019-02-10T09:02:33.282Z,958.9
2019-02-10T09:03:34.553Z,959
2019-02-10T09:04:35.856Z,958.7
2019-02-10T09:05:39.842Z,958.6
2019-02-10T09:06:42.072Z,958.7
2019-02-10T09:07:43.753Z,958.8
2019-02-10T09:08:45.012Z,958.7
2019-02-10T09:09:46.281Z,958.7
2019-02-10T09:10:47.837Z,958.8
2019-02-10T09:11:54.092Z,958.7
2019-02-10T09:12:55.640Z,958.6
2019-02-10T09:13:57.150Z,958.8
2019-02-10T09:14:58.435Z,958.7
2019-02-10T09:15:59.789Z,958.7
2019-02-10T09:17:01.119Z,958.6
2019-02-10T09:18:05.441Z,958.6
2019-02-10T09:19:06.724Z,958.5
2019-02-10T09:20:17.551Z,958.4
2019-02-10T09:21:18.892Z,958.6
2019-02-10T09:22:20.221Z,958.5
2019-02-10T09:23:22.778Z,958.5
2019-02-10T09:24:24.332Z,958.4
2019-02-10T09:25:25.600Z,958.5
2019-02-10T09:26:27.183Z,958.3
2019-02-10T09:27:28.766Z,958.5
2019-02-10T09:28:30.403Z,958.5
2019-02-10T09:29:31.687Z,958.4
2019-02-10T09:30:32.981Z,958.4
2019-02-10T09:31:54.978Z,958.3
2019-02-10T09:33:24.828Z,958.4
2019-02-10T09:35:37.293Z,958.3
2019-02-10T09:36:42.767Z,958.3
2019-02-10T09:37:44.075Z,958.3
2019-02-10T09:38:45.368Z,958.4
2019-02-10T09:39:46.667Z,958.4
2019-02-10T09:40:48.229Z,958.3
2019-02-10T09:41:50.016Z,958.4
2019-02-10T09:42:51.314Z,958.2
2019-02-10T09:43:52.622Z,958.2
2019-02-10T09:44:53.921Z,958.2
2019-02-10T09:45:55.210Z,958.3
2019-02-10T09:46:56.538Z,958.3
2019-02-10T09:47:57.852Z,958.2
2019-02-10T09:48:59.123Z,958.2
2019-02-10T09:50:00.428Z,958.2
2019-02-10T09:51:01.715Z,958.2
2019-02-10T09:52:03.029Z,958.1
2019-02-10T09:53:04.327Z,958.1
2019-02-10T09:54:05.608Z,958
2019-02-10T09:55:06.893Z,958.1
2019-02-10T09:56:08.293Z,958.1
2019-02-10T09:57:09.610Z,957.9
2019-02-10T09:58:10.915Z,958
2019-02-10T09:59:12.206Z,957.9
2019-02-10T10:00:13.472Z,957.9
2019-02-10T10:01:15.552Z,957.9
2019-02-10T10:02:16.895Z,957.9
2019-02-10T10:03:18.174Z,958
2019-02-10T10:04:21.291Z,957.8
2019-02-10T10:05:22.589Z,957.8
2019-02-10T10:06:23.949Z,957.9
2019-02-10T10:07:29.020Z,957.9
2019-02-10T10:08:30.305Z,957.9
2019-02-10T10:09:31.609Z,957.9
2019-02-10T10:10:32.984Z,957.9
2019-02-10T10:11:34.267Z,957.8
2019-02-10T10:12:35.635Z,957.8
2019-02-10T10:13:39.370Z,957.8
2019-02-10T10:14:40.640Z,957.8
2019-02-10T10:15:41.919Z,957.7
2019-02-10T10:16:43.249Z,957.7
2019-02-10T10:17:44.581Z,957.8
2019-02-10T10:18:45.958Z,957.7
2019-02-10T10:19:50.339Z,957.8
2019-02-10T10:20:51.647Z,957.6
2019-02-10T10:21:52.926Z,957.5
2019-02-10T10:22:54.241Z,957.6
2019-02-10T10:23:55.537Z,957.6
2019-02-10T10:24:57.780Z,957.6
2019-02-10T10:25:59.079Z,957.6
2019-02-10T10:27:00.583Z,957.6
2019-02-10T10:28:01.936Z,957.5
2019-02-10T10:29:03.266Z,957.6
2019-02-10T10:30:04.563Z,957.6
2019-02-10T10:31:08.061Z,957.5
2019-02-10T10:32:09.431Z,957.4
2019-02-10T10:33:11.610Z,957.3
2019-02-10T10:34:13.827Z,957.5
2019-02-10T10:35:15.243Z,957.5
2019-02-10T10:36:17.077Z,957.5
2019-02-10T10:37:19.645Z,957.5
2019-02-10T10:38:20.973Z,957.5
2019-02-10T10:39:28.379Z,957.5
2019-02-10T10:40:29.988Z,957.4
2019-02-10T10:41:31.273Z,957.5
2019-02-10T10:42:32.563Z,957.4
2019-02-10T10:43:33.919Z,957.5
2019-02-10T10:44:35.215Z,957.5
2019-02-10T10:45:36.511Z,957.6
2019-02-10T10:46:37.801Z,957.4
2019-02-10T10:47:41.481Z,957.5
2019-02-10T10:48:42.805Z,957.4
2019-02-10T10:49:44.354Z,957.3
2019-02-10T10:50:45.655Z,957.3
2019-02-10T10:51:48.085Z,957.3
2019-02-10T10:52:49.628Z,957.3
2019-02-10T10:53:50.953Z,957.2
2019-02-10T10:54:52.284Z,957.2
2019-02-10T10:55:53.574Z,957.2
2019-02-10T10:56:54.878Z,957.4
2019-02-10T10:57:56.206Z,957.3
2019-02-10T10:58:57.568Z,957.1
2019-02-10T10:59:58.855Z,957.1
2019-02-10T11:01:02.260Z,957.1
2019-02-10T11:02:03.550Z,957.1
2019-02-10T11:03:05.073Z,957.2
2019-02-10T11:04:06.484Z,957.3
2019-02-10T11:05:07.934Z,957.3
2019-02-10T11:06:11.309Z,957.1
2019-02-10T11:08:22.258Z,957.2
2019-02-10T11:09:35.520Z,957.2
2019-02-10T11:10:37.146Z,957.1
2019-02-10T11:11:41.065Z,956.9
2019-02-10T11:12:42.374Z,957.1
2019-02-10T11:13:43.629Z,957
2019-02-10T11:14:44.894Z,957.2
2019-02-10T11:15:46.167Z,957.1
2019-02-10T11:16:47.740Z,956.9
2019-02-10T11:17:51.810Z,956.9
2019-02-10T11:18:53.274Z,957.1
2019-02-10T11:19:54.589Z,957
2019-02-10T11:20:55.866Z,956.9
2019-02-10T11:21:57.235Z,956.9
2019-02-10T11:22:58.488Z,956.8
2019-02-10T11:23:59.752Z,956.8
2019-02-10T11:25:01.037Z,956.7
2019-02-10T11:26:02.293Z,956.7
2019-02-10T11:27:03.531Z,956.8
2019-02-10T11:28:04.787Z,956.7
2019-02-10T11:29:06.064Z,956.7
2019-02-10T11:30:10.002Z,956.7
2019-02-10T11:31:14.330Z,956.6
2019-02-10T11:32:15.793Z,956.7
2019-02-10T11:33:17.054Z,956.7
2019-02-10T11:34:18.314Z,956.6
2019-02-10T11:35:19.639Z,956.5
2019-02-10T11:36:20.913Z,956.5
2019-02-10T11:37:27.792Z,956.5
2019-02-10T11:38:29.022Z,956.5
2019-02-10T11:39:30.315Z,956.3
2019-02-10T11:40:31.607Z,956.4
2019-02-10T11:41:32.885Z,956.5
2019-02-10T11:42:34.267Z,956.4
2019-02-10T11:43:35.536Z,956.2
2019-02-10T11:44:36.920Z,956.3
2019-02-10T11:45:38.398Z,956.2
2019-02-10T11:46:42.921Z,956.2
2019-02-10T11:47:45.299Z,956.2
2019-02-10T11:48:46.567Z,956.1
2019-02-10T11:49:47.847Z,956.2
2019-02-10T11:50:52.295Z,956.1
2019-02-10T11:51:53.588Z,956.1
2019-02-10T11:52:56.268Z,956
2019-02-10T11:53:57.924Z,956.1
2019-02-10T11:54:59.254Z,956
2019-02-10T11:56:00.562Z,956.1
2019-02-10T11:57:02.306Z,955.9
2019-02-10T11:58:04.973Z,955.8
2019-02-10T11:59:06.504Z,956.1
2019-02-10T12:00:07.772Z,955.9
2019-02-10T12:01:09.062Z,955.8
2019-02-10T12:02:10.334Z,955.8
2019-02-10T12:03:11.617Z,955.8
2019-02-10T12:04:18.042Z,955.8
2019-02-10T12:05:26.627Z,955.9
2019-02-10T12:06:28.578Z,955.9
2019-02-10T12:07:29.854Z,955.7
2019-02-10T12:08:36.504Z,955.9
2019-02-10T12:09:37.796Z,955.8
2019-02-10T12:10:39.423Z,955.7
2019-02-10T12:11:40.749Z,955.7
2019-02-10T12:12:42.020Z,955.7
2019-02-10T12:13:43.493Z,955.6
2019-02-10T12:14:47.818Z,955.6
2019-02-10T12:15:49.256Z,955.5
2019-02-10T12:16:50.864Z,955.7
2019-02-10T12:17:55.266Z,955.6
2019-02-10T12:18:57.634Z,955.7
2019-02-10T12:20:04.310Z,955.6
2019-02-10T12:21:05.576Z,955.5
2019-02-10T12:23:17.356Z,955.6
2019-02-10T12:24:18.617Z,955.4
2019-02-10T12:25:20.154Z,955.3
2019-02-10T12:26:21.436Z,955.2
2019-02-10T12:27:22.802Z,955.2
2019-02-10T12:28:24.727Z,955.2
2019-02-10T12:29:26.444Z,955.3
2019-02-10T12:30:27.796Z,955.2
2019-02-10T12:31:29.064Z,955.2
2019-02-10T12:32:33.016Z,955.3
2019-02-10T12:33:38.044Z,955
2019-02-10T12:34:39.633Z,955.2
2019-02-10T12:35:41.675Z,955.2
2019-02-10T12:36:45.472Z,955.2
2019-02-10T12:37:46.762Z,955.1
2019-02-10T12:38:48.816Z,955
2019-02-10T12:39:50.181Z,955.3
2019-02-10T12:40:51.677Z,954.9
2019-02-10T12:41:52.978Z,954.9
2019-02-10T12:42:54.265Z,954.9
2019-02-10T12:43:55.538Z,955
2019-02-10T12:44:57.154Z,954.9
2019-02-10T12:45:58.624Z,955
2019-02-10T12:47:01.093Z,955
2019-02-10T12:48:03.576Z,955
2019-02-10T12:49:04.963Z,955.1
2019-02-10T12:50:06.332Z,954.9
2019-02-10T12:51:07.647Z,954.9
2019-02-10T12:52:11.438Z,954.8
2019-02-10T12:53:15.841Z,954.8
2019-02-10T12:54:17.829Z,954.9
2019-02-10T12:55:21.858Z,954.7
2019-02-10T12:56:24.332Z,954.9
2019-02-10T12:57:25.722Z,954.8
2019-02-10T12:58:27.054Z,954.8
2019-02-10T12:59:28.577Z,954.7
2019-02-10T13:00:30.106Z,954.7
2019-02-10T13:01:31.682Z,954.8
2019-02-10T13:02:33.208Z,954.8
2019-02-10T13:03:37.756Z,954.6
2019-02-10T13:04:39.341Z,954.5
2019-02-10T13:05:44.970Z,954.7
2019-02-10T13:06:51.272Z,954.7
2019-02-10T13:07:52.560Z,954.7
2019-02-10T13:08:54.174Z,954.7
2019-02-10T13:09:55.575Z,954.8
2019-02-10T13:10:59.851Z,954.6
2019-02-10T13:12:03.551Z,954.7
2019-02-10T13:13:05.026Z,954.6
2019-02-10T13:14:06.620Z,954.6
2019-02-10T13:15:08.554Z,954.6
2019-02-10T13:16:10.025Z,954.6
2019-02-10T13:17:11.307Z,954.7
2019-02-10T13:18:14.202Z,954.4
2019-02-10T13:19:15.532Z,954.6
2019-02-10T13:20:16.806Z,954.5
2019-02-10T13:21:18.319Z,954.5
2019-02-10T13:22:24.332Z,954.5
2019-02-10T13:23:25.631Z,954.5
2019-02-10T13:24:26.973Z,954.4